CFG2PC EDDL-EDDS
Flight info
| Callsign | CFG2PC |
|---|---|
| Flight time | 0h 40m |
| Altitude | 23000 |
| Route | KUMIK5Z KUMIK L603 BOMBI N850 KRH T128 BADSO BADSO2A |
| Aircraft | A321/M-SDE3FGHIRWY/LB1 |
Departure
| Time | 2026-05-05 17:42 |
|---|---|
| Airport | Düsseldorf Airport (EDDL) |
Arrival
| Time | 2026-05-05 18:23 |
|---|---|
| Airport | Stuttgart Airport (EDDS) |
| Time | Latitude | Longitude | Altitude | Speed | Heading |
|---|---|---|---|---|---|
| 2026-05-05 17:17 | 51.28514 | 6.77111 | 137 ft | 0 kts | 323° |
| 2026-05-05 17:30 | 51.28512 | 6.77113 | 137 ft | 2 kts | 323° |
| 2026-05-05 17:31 | 51.28493 | 6.77139 | 136 ft | 4 kts | 310° |
| 2026-05-05 17:31 | 51.28479 | 6.77174 | 135 ft | 4 kts | 283° |
| 2026-05-05 17:31 | 51.28480 | 6.77211 | 135 ft | 4 kts | 235° |
| 2026-05-05 17:31 | 51.28485 | 6.77222 | 135 ft | 0 kts | 230° |
| 2026-05-05 17:37 | 51.28483 | 6.77219 | 135 ft | 2 kts | 230° |
| 2026-05-05 17:38 | 51.28451 | 6.77157 | 134 ft | 13 kts | 231° |
| 2026-05-05 17:38 | 51.28377 | 6.77002 | 134 ft | 20 kts | 232° |
| 2026-05-05 17:38 | 51.28352 | 6.76809 | 133 ft | 15 kts | 278° |
| 2026-05-05 17:38 | 51.28344 | 6.76657 | 134 ft | 13 kts | 234° |
| 2026-05-05 17:39 | 51.28305 | 6.76577 | 133 ft | 4 kts | 233° |
| 2026-05-05 17:39 | 51.28300 | 6.76532 | 133 ft | 4 kts | 287° |
| 2026-05-05 17:39 | 51.28318 | 6.76463 | 133 ft | 9 kts | 285° |
| 2026-05-05 17:39 | 51.28290 | 6.76356 | 132 ft | 12 kts | 232° |
| 2026-05-05 17:40 | 51.28235 | 6.76240 | 134 ft | 14 kts | 233° |
| 2026-05-05 17:40 | 51.28168 | 6.76100 | 134 ft | 18 kts | 232° |
| 2026-05-05 17:40 | 51.28086 | 6.75929 | 134 ft | 21 kts | 233° |
| 2026-05-05 17:40 | 51.27993 | 6.75733 | 131 ft | 17 kts | 233° |
| 2026-05-05 17:41 | 51.27942 | 6.75626 | 127 ft | 11 kts | 232° |
| 2026-05-05 17:41 | 51.27884 | 6.75505 | 125 ft | 16 kts | 232° |
| 2026-05-05 17:41 | 51.27858 | 6.75339 | 123 ft | 17 kts | 308° |
| 2026-05-05 17:41 | 51.27978 | 6.75269 | 123 ft | 14 kts | 16° |
| 2026-05-05 17:42 | 51.28067 | 6.75421 | 122 ft | 32 kts | 52° |
| 2026-05-05 17:42 | 51.28449 | 6.76234 | 154 ft | 144 kts | 48° |
| 2026-05-05 17:42 | 51.29171 | 6.77690 | 839 ft | 185 kts | 48° |
| 2026-05-05 17:42 | 51.30042 | 6.79328 | 1924 ft | 199 kts | 49° |
| 2026-05-05 17:43 | 51.30948 | 6.81095 | 2997 ft | 208 kts | 53° |
| 2026-05-05 17:43 | 51.31797 | 6.83017 | 3758 ft | 220 kts | 55° |
| 2026-05-05 17:43 | 51.32731 | 6.85100 | 4278 ft | 240 kts | 54° |
| 2026-05-05 17:43 | 51.33732 | 6.87306 | 4991 ft | 254 kts | 55° |
| 2026-05-05 17:44 | 51.34641 | 6.89822 | 5849 ft | 268 kts | 69° |
| 2026-05-05 17:44 | 51.35083 | 6.92750 | 6756 ft | 275 kts | 85° |
| 2026-05-05 17:44 | 51.34988 | 6.95828 | 7959 ft | 280 kts | 101° |
| 2026-05-05 17:44 | 51.34664 | 6.98930 | 9066 ft | 285 kts | 101° |
| 2026-05-05 17:45 | 51.34341 | 7.02101 | 10107 ft | 293 kts | 101° |
| 2026-05-05 17:45 | 51.34001 | 7.05450 | 10651 ft | 317 kts | 101° |
| 2026-05-05 17:45 | 51.33634 | 7.09069 | 11165 ft | 341 kts | 101° |
| 2026-05-05 17:45 | 51.33251 | 7.12885 | 11979 ft | 352 kts | 100° |
| 2026-05-05 17:46 | 51.32862 | 7.16781 | 12953 ft | 358 kts | 101° |
| 2026-05-05 17:46 | 51.32413 | 7.20667 | 13901 ft | 362 kts | 108° |
| 2026-05-05 17:46 | 51.31318 | 7.24288 | 14749 ft | 364 kts | 127° |
| 2026-05-05 17:46 | 51.29612 | 7.27296 | 15617 ft | 367 kts | 136° |
| 2026-05-05 17:47 | 51.27808 | 7.30218 | 16517 ft | 371 kts | 136° |
| 2026-05-05 17:47 | 51.25985 | 7.33158 | 17372 ft | 375 kts | 136° |
| 2026-05-05 17:47 | 51.24142 | 7.36125 | 18205 ft | 379 kts | 136° |
| 2026-05-05 17:47 | 51.22872 | 7.38171 | 18710 ft | 382 kts | 136° |
| 2026-05-05 17:48 | 51.20997 | 7.41198 | 19449 ft | 385 kts | 136° |
| 2026-05-05 17:48 | 51.19108 | 7.44253 | 20201 ft | 388 kts | 136° |
| 2026-05-05 17:48 | 51.17205 | 7.47325 | 20940 ft | 391 kts | 136° |
| 2026-05-05 17:48 | 51.15282 | 7.50424 | 21689 ft | 394 kts | 136° |
| 2026-05-05 17:49 | 51.13348 | 7.53536 | 22398 ft | 398 kts | 136° |
| 2026-05-05 17:49 | 51.11390 | 7.56681 | 22743 ft | 399 kts | 136° |
| 2026-05-05 17:49 | 51.09424 | 7.59834 | 22822 ft | 406 kts | 136° |
| 2026-05-05 17:49 | 51.07427 | 7.63032 | 22822 ft | 410 kts | 136° |
| 2026-05-05 17:50 | 51.05413 | 7.66254 | 22827 ft | 411 kts | 136° |
| 2026-05-05 17:50 | 51.03396 | 7.69483 | 22820 ft | 411 kts | 136° |
| 2026-05-05 17:50 | 51.01375 | 7.72718 | 22818 ft | 411 kts | 136° |
| 2026-05-05 17:50 | 50.99362 | 7.75938 | 22824 ft | 411 kts | 136° |
| 2026-05-05 17:51 | 50.97345 | 7.79157 | 22824 ft | 411 kts | 136° |
| 2026-05-05 17:51 | 50.95323 | 7.82371 | 22820 ft | 411 kts | 136° |
| 2026-05-05 17:51 | 50.93305 | 7.85571 | 22825 ft | 411 kts | 136° |
| 2026-05-05 17:51 | 50.91284 | 7.88778 | 22826 ft | 411 kts | 136° |
| 2026-05-05 17:52 | 50.89265 | 7.91980 | 22830 ft | 411 kts | 136° |
| 2026-05-05 17:52 | 50.87230 | 7.95152 | 22827 ft | 410 kts | 139° |
| 2026-05-05 17:52 | 50.84881 | 7.97663 | 22828 ft | 408 kts | 154° |
| 2026-05-05 17:52 | 50.82279 | 7.99451 | 22826 ft | 408 kts | 157° |
| 2026-05-05 17:53 | 50.79660 | 8.01184 | 22827 ft | 408 kts | 158° |
| 2026-05-05 17:53 | 50.77068 | 8.02878 | 22825 ft | 408 kts | 158° |
| 2026-05-05 17:53 | 50.74446 | 8.04582 | 22823 ft | 409 kts | 158° |
| 2026-05-05 17:53 | 50.71812 | 8.06290 | 22824 ft | 409 kts | 158° |
| 2026-05-05 17:54 | 50.69178 | 8.07998 | 22827 ft | 409 kts | 158° |
| 2026-05-05 17:54 | 50.66547 | 8.09711 | 22826 ft | 409 kts | 158° |
| 2026-05-05 17:54 | 50.64800 | 8.10851 | 22826 ft | 409 kts | 158° |
| 2026-05-05 17:54 | 50.62181 | 8.12559 | 22833 ft | 409 kts | 158° |
| 2026-05-05 17:55 | 50.59544 | 8.14272 | 22828 ft | 409 kts | 158° |
| 2026-05-05 17:55 | 50.56914 | 8.15978 | 22829 ft | 409 kts | 158° |
| 2026-05-05 17:55 | 50.54280 | 8.17687 | 22825 ft | 409 kts | 157° |
| 2026-05-05 17:55 | 50.51648 | 8.19396 | 22825 ft | 409 kts | 157° |
| 2026-05-05 17:56 | 50.49018 | 8.21100 | 22826 ft | 409 kts | 158° |
| 2026-05-05 17:56 | 50.46386 | 8.22800 | 22822 ft | 409 kts | 158° |
| 2026-05-05 17:56 | 50.44648 | 8.23922 | 22818 ft | 409 kts | 158° |
| 2026-05-05 17:56 | 50.42009 | 8.25626 | 22813 ft | 409 kts | 158° |
| 2026-05-05 17:57 | 50.39383 | 8.27321 | 22811 ft | 409 kts | 158° |
| 2026-05-05 17:57 | 50.36750 | 8.29018 | 22812 ft | 409 kts | 158° |
| 2026-05-05 17:57 | 50.34121 | 8.30709 | 22815 ft | 409 kts | 158° |
| 2026-05-05 17:57 | 50.31487 | 8.32404 | 22813 ft | 409 kts | 158° |
| 2026-05-05 17:58 | 50.28854 | 8.34098 | 22813 ft | 409 kts | 158° |
| 2026-05-05 17:58 | 50.26222 | 8.35790 | 22818 ft | 409 kts | 158° |
| 2026-05-05 17:58 | 50.23587 | 8.37477 | 22816 ft | 409 kts | 158° |
| 2026-05-05 17:58 | 50.20951 | 8.39157 | 22818 ft | 410 kts | 158° |
| 2026-05-05 17:59 | 50.18307 | 8.40840 | 22815 ft | 410 kts | 158° |
| 2026-05-05 17:59 | 50.15663 | 8.42523 | 22820 ft | 411 kts | 158° |
| 2026-05-05 17:59 | 50.13013 | 8.44209 | 22820 ft | 411 kts | 158° |
| 2026-05-05 17:59 | 50.10364 | 8.45889 | 22821 ft | 411 kts | 158° |
| 2026-05-05 18:00 | 50.07712 | 8.47570 | 22786 ft | 412 kts | 158° |
| 2026-05-05 18:00 | 50.05055 | 8.49257 | 22786 ft | 412 kts | 158° |
| 2026-05-05 18:00 | 50.02403 | 8.50940 | 22787 ft | 413 kts | 158° |
| 2026-05-05 18:00 | 49.99736 | 8.52627 | 22788 ft | 413 kts | 158° |
| 2026-05-05 18:01 | 49.97071 | 8.54313 | 22788 ft | 414 kts | 158° |
| 2026-05-05 18:01 | 49.94405 | 8.55999 | 22788 ft | 414 kts | 158° |
| 2026-05-05 18:01 | 49.91731 | 8.57687 | 22792 ft | 414 kts | 158° |
| 2026-05-05 18:01 | 49.89064 | 8.59367 | 22588 ft | 414 kts | 158° |
| 2026-05-05 18:02 | 49.86371 | 8.61059 | 22730 ft | 422 kts | 158° |
| 2026-05-05 18:02 | 49.83635 | 8.62775 | 22923 ft | 426 kts | 158° |
| 2026-05-05 18:02 | 49.80881 | 8.64506 | 23013 ft | 427 kts | 158° |
| 2026-05-05 18:02 | 49.78148 | 8.66224 | 23106 ft | 419 kts | 158° |
| 2026-05-05 18:03 | 49.75426 | 8.67713 | 22915 ft | 414 kts | 165° |
| 2026-05-05 18:03 | 49.72588 | 8.68467 | 22818 ft | 412 kts | 175° |
| 2026-05-05 18:03 | 49.69724 | 8.68459 | 22830 ft | 412 kts | 184° |
| 2026-05-05 18:03 | 49.66894 | 8.68076 | 22832 ft | 412 kts | 185° |
| 2026-05-05 18:04 | 49.64025 | 8.67689 | 22830 ft | 412 kts | 185° |
| 2026-05-05 18:04 | 49.61170 | 8.67307 | 22837 ft | 412 kts | 185° |
| 2026-05-05 18:04 | 49.58313 | 8.66928 | 22831 ft | 412 kts | 184° |
| 2026-05-05 18:04 | 49.55456 | 8.66551 | 22836 ft | 411 kts | 184° |
| 2026-05-05 18:05 | 49.52638 | 8.66179 | 22838 ft | 411 kts | 184° |
| 2026-05-05 18:05 | 49.49785 | 8.65801 | 22841 ft | 411 kts | 184° |
| 2026-05-05 18:05 | 49.46935 | 8.65423 | 22841 ft | 411 kts | 185° |
| 2026-05-05 18:05 | 49.44086 | 8.65041 | 22833 ft | 411 kts | 185° |
| 2026-05-05 18:06 | 49.41250 | 8.64663 | 22174 ft | 407 kts | 185° |
| 2026-05-05 18:06 | 49.39344 | 8.64410 | 21654 ft | 405 kts | 185° |
| 2026-05-05 18:06 | 49.35606 | 8.63912 | 20901 ft | 404 kts | 185° |
| 2026-05-05 18:06 | 49.32815 | 8.63536 | 20339 ft | 401 kts | 185° |
| 2026-05-05 18:07 | 49.30044 | 8.63144 | 19794 ft | 398 kts | 186° |
| 2026-05-05 18:07 | 49.27295 | 8.62725 | 19256 ft | 395 kts | 186° |
| 2026-05-05 18:07 | 49.24570 | 8.62293 | 18728 ft | 392 kts | 187° |
| 2026-05-05 18:07 | 49.21887 | 8.61862 | 18202 ft | 389 kts | 187° |
| 2026-05-05 18:08 | 49.19187 | 8.61433 | 17628 ft | 386 kts | 187° |
| 2026-05-05 18:08 | 49.16526 | 8.61013 | 17042 ft | 383 kts | 187° |
| 2026-05-05 18:08 | 49.13888 | 8.60600 | 16482 ft | 380 kts | 187° |
| 2026-05-05 18:08 | 49.11259 | 8.60407 | 15904 ft | 378 kts | 177° |
| 2026-05-05 18:09 | 49.08739 | 8.61288 | 15350 ft | 377 kts | 160° |
| 2026-05-05 18:09 | 49.06491 | 8.63322 | 14698 ft | 378 kts | 142° |
| 2026-05-05 18:09 | 49.04766 | 8.66352 | 14037 ft | 380 kts | 124° |
| 2026-05-05 18:09 | 49.03734 | 8.70064 | 13341 ft | 382 kts | 109° |
| 2026-05-05 18:10 | 49.02984 | 8.73959 | 12611 ft | 381 kts | 109° |
| 2026-05-05 18:10 | 49.02252 | 8.77811 | 11935 ft | 377 kts | 109° |
| 2026-05-05 18:10 | 49.01526 | 8.81629 | 11266 ft | 374 kts | 109° |
| 2026-05-05 18:10 | 49.00802 | 8.85413 | 10611 ft | 370 kts | 109° |
| 2026-05-05 18:11 | 49.00083 | 8.89159 | 9957 ft | 367 kts | 109° |
| 2026-05-05 18:11 | 48.99378 | 8.92823 | 9769 ft | 351 kts | 109° |
| 2026-05-05 18:11 | 48.98706 | 8.96310 | 9633 ft | 334 kts | 109° |
| 2026-05-05 18:11 | 48.98065 | 8.99621 | 9507 ft | 319 kts | 110° |
| 2026-05-05 18:12 | 48.97450 | 9.02786 | 9345 ft | 306 kts | 110° |
| 2026-05-05 18:12 | 48.96839 | 9.05901 | 8779 ft | 308 kts | 110° |
| 2026-05-05 18:12 | 48.96220 | 9.09042 | 8210 ft | 310 kts | 110° |
| 2026-05-05 18:12 | 48.95596 | 9.12187 | 7653 ft | 311 kts | 110° |
| 2026-05-05 18:13 | 48.95090 | 9.14722 | 7200 ft | 312 kts | 110° |
| 2026-05-05 18:13 | 48.94478 | 9.17773 | 6684 ft | 312 kts | 110° |
| 2026-05-05 18:13 | 48.93840 | 9.20931 | 6159 ft | 311 kts | 110° |
| 2026-05-05 18:13 | 48.93224 | 9.23971 | 5993 ft | 292 kts | 110° |
| 2026-05-05 18:14 | 48.92638 | 9.26894 | 6001 ft | 288 kts | 110° |
| 2026-05-05 18:14 | 48.92060 | 9.29806 | 6007 ft | 288 kts | 110° |
| 2026-05-05 18:14 | 48.91480 | 9.32726 | 6006 ft | 288 kts | 110° |
| 2026-05-05 18:14 | 48.91212 | 9.34070 | 6002 ft | 288 kts | 110° |
| 2026-05-05 18:15 | 48.90686 | 9.36685 | 6006 ft | 288 kts | 110° |
| 2026-05-05 18:15 | 48.90112 | 9.39558 | 6008 ft | 271 kts | 110° |
| 2026-05-05 18:15 | 48.89557 | 9.42208 | 6004 ft | 257 kts | 117° |
| 2026-05-05 18:15 | 48.89161 | 9.43270 | 6003 ft | 251 kts | 132° |
| 2026-05-05 18:16 | 48.87962 | 9.45156 | 6003 ft | 247 kts | 143° |
| 2026-05-05 18:16 | 48.86686 | 9.46885 | 5761 ft | 245 kts | 144° |
| 2026-05-05 18:16 | 48.85405 | 9.48582 | 5463 ft | 244 kts | 144° |
| 2026-05-05 18:16 | 48.84042 | 9.49997 | 5181 ft | 237 kts | 160° |
| 2026-05-05 18:17 | 48.82533 | 9.50949 | 5022 ft | 235 kts | 163° |
| 2026-05-05 18:17 | 48.81007 | 9.51833 | 5002 ft | 235 kts | 164° |
| 2026-05-05 18:17 | 48.79457 | 9.52725 | 5003 ft | 235 kts | 165° |
| 2026-05-05 18:17 | 48.77901 | 9.53064 | 5004 ft | 226 kts | 193° |
| 2026-05-05 18:18 | 48.76504 | 9.52132 | 5004 ft | 220 kts | 219° |
| 2026-05-05 18:18 | 48.75320 | 9.50632 | 5005 ft | 218 kts | 224° |
| 2026-05-05 18:18 | 48.74425 | 9.48808 | 5003 ft | 215 kts | 244° |
| 2026-05-05 18:18 | 48.73809 | 9.46821 | 5003 ft | 202 kts | 245° |
| 2026-05-05 18:19 | 48.73284 | 9.44944 | 4999 ft | 184 kts | 251° |
| 2026-05-05 18:19 | 48.72935 | 9.43190 | 4970 ft | 169 kts | 253° |
| 2026-05-05 18:19 | 48.72615 | 9.41472 | 4740 ft | 166 kts | 253° |
| 2026-05-05 18:19 | 48.72301 | 9.39797 | 4503 ft | 165 kts | 253° |
| 2026-05-05 18:20 | 48.71991 | 9.38144 | 4224 ft | 165 kts | 253° |
| 2026-05-05 18:20 | 48.71675 | 9.36453 | 3990 ft | 166 kts | 253° |
| 2026-05-05 18:20 | 48.71361 | 9.34701 | 3495 ft | 180 kts | 255° |
| 2026-05-05 18:20 | 48.71038 | 9.32947 | 3096 ft | 167 kts | 253° |
| 2026-05-05 18:21 | 48.70713 | 9.31344 | 2539 ft | 152 kts | 252° |
| 2026-05-05 18:21 | 48.70443 | 9.29889 | 2346 ft | 132 kts | 253° |
| 2026-05-05 18:21 | 48.70190 | 9.28568 | 2020 ft | 130 kts | 252° |
| 2026-05-05 18:21 | 48.69944 | 9.27236 | 1655 ft | 130 kts | 253° |
| 2026-05-05 18:22 | 48.69697 | 9.25940 | 1461 ft | 127 kts | 252° |
| 2026-05-05 18:22 | 48.69455 | 9.24657 | 1315 ft | 126 kts | 253° |
| 2026-05-05 18:22 | 48.69221 | 9.23438 | 1265 ft | 109 kts | 255° |
| 2026-05-05 18:22 | 48.69060 | 9.22583 | 1266 ft | 57 kts | 255° |
| 2026-05-05 18:23 | 48.68961 | 9.22065 | 1266 ft | 49 kts | 253° |
| 2026-05-05 18:23 | 48.68871 | 9.21586 | 1262 ft | 46 kts | 254° |
| 2026-05-05 18:23 | 48.68822 | 9.21171 | 1259 ft | 33 kts | 273° |
| 2026-05-05 18:23 | 48.68843 | 9.20942 | 1262 ft | 11 kts | 283° |
| 2026-05-05 18:24 | 48.68862 | 9.20829 | 1264 ft | 11 kts | 284° |
| 2026-05-05 18:24 | 48.68879 | 9.20710 | 1258 ft | 12 kts | 275° |
| 2026-05-05 18:24 | 48.68861 | 9.20593 | 1258 ft | 12 kts | 251° |
| 2026-05-05 18:24 | 48.68836 | 9.20470 | 1260 ft | 13 kts | 253° |
| 2026-05-05 18:25 | 48.68811 | 9.20335 | 1262 ft | 14 kts | 255° |
| 2026-05-05 18:25 | 48.68794 | 9.20244 | 1258 ft | 14 kts | 254° |
| 2026-05-05 18:25 | 48.68759 | 9.20041 | 1262 ft | 15 kts | 268° |
| 2026-05-05 18:25 | 48.68796 | 9.19945 | 1258 ft | 3 kts | 316° |
| 2026-05-05 18:26 | 48.68799 | 9.19942 | 1258 ft | 3 kts | 316° |
| 2026-05-05 18:26 | 48.68825 | 9.19911 | 1262 ft | 9 kts | 329° |
| 2026-05-05 18:26 | 48.68887 | 9.19830 | 1260 ft | 13 kts | 272° |
| 2026-05-05 18:26 | 48.68868 | 9.19693 | 1261 ft | 14 kts | 253° |
| 2026-05-05 18:27 | 48.68843 | 9.19562 | 1263 ft | 9 kts | 264° |
| 2026-05-05 18:27 | 48.68845 | 9.19553 | 1262 ft | 2 kts | 281° |
| 2026-05-05 18:27 | 48.68859 | 9.19533 | 1261 ft | 2 kts | 343° |
| 2026-05-05 18:27 | 48.68902 | 9.19521 | 1260 ft | 6 kts | 343° |
| 2026-05-05 18:28 | 48.68911 | 9.19517 | 1260 ft | 0 kts | 344° |